createdAt,value
2022-08-18T00:00:40.724Z,98967.47
2022-08-18T00:01:55.361Z,98958.50
2022-08-18T00:03:14.223Z,98976.75
2022-08-18T00:04:36.464Z,98969.44
2022-08-18T00:05:46.653Z,98974.50
2022-08-18T00:06:49.013Z,98967.88
2022-08-18T00:07:51.398Z,98972.81
2022-08-18T00:08:53.616Z,98970.69
2022-08-18T00:09:56.357Z,98968.56
2022-08-18T00:10:58.768Z,98975.97
2022-08-18T00:12:04.475Z,98977.53
2022-08-18T00:13:06.768Z,98971.09
2022-08-18T00:14:21.442Z,98974.75
2022-08-18T00:15:25.572Z,98986.56
2022-08-18T00:16:27.973Z,98985.72
2022-08-18T00:17:31.260Z,98979.66
2022-08-18T00:18:33.725Z,98993.25
2022-08-18T00:19:46.489Z,98983.94
2022-08-18T00:20:50.440Z,98997.84
2022-08-18T00:21:52.884Z,98995.59
2022-08-18T00:22:56.584Z,98989.25
2022-08-18T00:23:58.868Z,98994.31
2022-08-18T00:25:01.677Z,98993.03
2022-08-18T00:26:04.586Z,99000.22
2022-08-18T00:27:06.941Z,99003.69
2022-08-18T00:28:09.921Z,99011.78
2022-08-18T00:29:12.398Z,99014.44
2022-08-18T00:30:18.325Z,99015.47
2022-08-18T00:31:20.567Z,99022.09
2022-08-18T00:32:26.337Z,99021.41
2022-08-18T00:33:28.626Z,99017.50
2022-08-18T00:34:30.864Z,99028.56
2022-08-18T00:35:38.196Z,99018.94
2022-08-18T00:36:41.111Z,99014.06
2022-08-18T00:37:43.697Z,99026.00
2022-08-18T00:38:46.059Z,99026.56
2022-08-18T00:39:52.042Z,99026.50
2022-08-18T00:40:56.723Z,99021.81
2022-08-18T00:41:58.978Z,99028.84
2022-08-18T00:43:04.800Z,99033.34
2022-08-18T00:44:07.245Z,99033.06
2022-08-18T00:45:15.569Z,99027.00
2022-08-18T00:46:24.678Z,99030.22
2022-08-18T00:47:41.979Z,99021.38
2022-08-18T00:48:48.715Z,99026.25
2022-08-18T00:49:53.101Z,99015.16
2022-08-18T00:51:02.755Z,99019.88
2022-08-18T00:52:05.873Z,99024.97
2022-08-18T00:53:27.595Z,99018.19
2022-08-18T00:54:33.122Z,99024.75
2022-08-18T00:55:36.521Z,99030.03
2022-08-18T00:56:44.134Z,99029.72
2022-08-18T00:57:50.284Z,99017.75
2022-08-18T00:58:59.199Z,99020.75
2022-08-18T01:00:13.310Z,99012.19
2022-08-18T01:01:18.812Z,99016.84
2022-08-18T01:02:33.469Z,99021.13
2022-08-18T01:03:39.909Z,99011.63
2022-08-18T01:04:47.426Z,99018.81
2022-08-18T01:05:59.424Z,99014.78
2022-08-18T01:07:07.010Z,99022.09
2022-08-18T01:08:14.499Z,99017.06
2022-08-18T01:09:17.963Z,99016.81
2022-08-18T01:10:22.869Z,99010.34
2022-08-18T01:11:25.268Z,99007.81
2022-08-18T01:12:45.517Z,99002.81
2022-08-18T01:13:49.216Z,99013.09
2022-08-18T01:14:51.633Z,99002.69
2022-08-18T01:15:53.926Z,99005.50
2022-08-18T01:17:15.007Z,98996.72
2022-08-18T01:18:35.671Z,99004.00
2022-08-18T01:19:57.466Z,99005.09
2022-08-18T01:21:35.756Z,99006.28
2022-08-18T01:22:49.959Z,99007.38
2022-08-18T01:23:54.555Z,99007.38
2022-08-18T01:25:18.612Z,98993.75
2022-08-18T01:26:22.724Z,99012.03
2022-08-18T01:27:26.788Z,99001.25
2022-08-18T01:28:49.380Z,99011.69
2022-08-18T01:29:51.782Z,99003.69
2022-08-18T01:30:58.103Z,99010.22
2022-08-18T01:32:00.501Z,99014.41
2022-08-18T01:33:02.770Z,99023.81
2022-08-18T01:34:07.620Z,99007.81
2022-08-18T01:35:11.549Z,99016.66
2022-08-18T01:36:20.214Z,99011.00
2022-08-18T01:37:24.271Z,99012.50
2022-08-18T01:38:26.989Z,99013.72
2022-08-18T01:41:23.717Z,99024.25
2022-08-18T01:41:23.889Z,99024.53
2022-08-18T01:42:17.331Z,99014.03
2022-08-18T01:43:20.844Z,99014.47
2022-08-18T01:44:23.083Z,99016.44
2022-08-18T01:45:26.299Z,99007.34
2022-08-18T01:46:33.599Z,99004.53
2022-08-18T01:47:47.387Z,99005.63
2022-08-18T01:48:52.100Z,99005.31
2022-08-18T01:49:54.378Z,99004.75
2022-08-18T01:50:57.033Z,99000.91
2022-08-18T01:52:02.220Z,99005.56
2022-08-18T01:53:07.605Z,98994.78
2022-08-18T01:54:13.711Z,98997.31
2022-08-18T01:55:16.130Z,99001.81
2022-08-18T01:56:18.534Z,99006.59
2022-08-18T01:57:21.671Z,98993.47
2022-08-18T01:58:31.429Z,99003.75
2022-08-18T01:59:35.246Z,98997.19
2022-08-18T02:00:37.975Z,98988.00
2022-08-18T02:01:48.450Z,98985.75
2022-08-18T02:03:01.957Z,98991.78
2022-08-18T02:04:33.332Z,98980.69
2022-08-18T02:05:36.564Z,98994.16
2022-08-18T02:06:40.545Z,98989.09
2022-08-18T02:07:48.833Z,98988.69
2022-08-18T02:08:56.561Z,98985.72
2022-08-18T02:09:59.560Z,99001.69
2022-08-18T02:11:03.330Z,98996.53
2022-08-18T02:12:07.571Z,98988.44
2022-08-18T02:13:10.267Z,98994.97
2022-08-18T02:14:12.527Z,98996.19
2022-08-18T02:15:14.800Z,98986.69
2022-08-18T02:16:17.307Z,98997.81
2022-08-18T02:17:19.888Z,98993.91
2022-08-18T02:18:47.403Z,98982.72
2022-08-18T02:19:49.761Z,98978.81
2022-08-18T02:20:52.292Z,98976.84
2022-08-18T02:21:54.607Z,98970.69
2022-08-18T02:22:58.597Z,98969.28
2022-08-18T02:24:01.148Z,98973.19
2022-08-18T02:25:05.141Z,98973.19
2022-08-18T02:26:12.140Z,98963.09
2022-08-18T02:27:15.952Z,98978.56
2022-08-18T02:28:18.213Z,98973.94
2022-08-18T02:29:20.491Z,98969.03
2022-08-18T02:30:23.277Z,98972.38
2022-08-18T02:31:25.812Z,98976.03
2022-08-18T02:32:29.488Z,98977.72
2022-08-18T02:33:32.039Z,98972.50
2022-08-18T02:34:35.024Z,98970.28
2022-08-18T02:35:38.683Z,98969.06
2022-08-18T02:36:40.936Z,98971.34
2022-08-18T02:37:47.910Z,98973.75
2022-08-18T02:38:56.604Z,98968.03
2022-08-18T02:40:02.524Z,98958.94
2022-08-18T02:41:06.717Z,98958.19
2022-08-18T02:42:09.220Z,98962.16
2022-08-18T02:43:11.519Z,98952.25
2022-08-18T02:44:14.283Z,98949.13
2022-08-18T02:45:16.586Z,98955.16
2022-08-18T02:46:19.192Z,98954.91
2022-08-18T02:47:22.275Z,98955.72
2022-08-18T02:48:32.957Z,98959.59
2022-08-18T02:49:36.822Z,98950.84
2022-08-18T02:50:48.471Z,98954.41
2022-08-18T02:51:52.279Z,98958.50
2022-08-18T02:52:54.800Z,98956.28
2022-08-18T02:54:00.620Z,98943.56
2022-08-18T02:55:03.619Z,98937.25
2022-08-18T02:56:40.784Z,98949.03
2022-08-18T02:57:49.058Z,98941.03
2022-08-18T02:58:54.818Z,98938.13
2022-08-18T02:59:57.450Z,98934.41
2022-08-18T03:01:02.133Z,98926.28
2022-08-18T03:02:06.514Z,98929.34
2022-08-18T03:03:09.008Z,98925.97
2022-08-18T03:04:14.247Z,98929.34
2022-08-18T03:05:17.458Z,98916.94
2022-08-18T03:06:21.062Z,98924.13
2022-08-18T03:07:24.104Z,98922.66
2022-08-18T03:08:26.405Z,98924.94
2022-08-18T03:09:29.663Z,98924.75
2022-08-18T03:10:34.242Z,98928.97
2022-08-18T03:11:37.512Z,98917.94
2022-08-18T03:12:42.435Z,98919.06
2022-08-18T03:13:46.340Z,98915.09
2022-08-18T03:14:50.855Z,98926.47
2022-08-18T03:15:56.700Z,98915.19
2022-08-18T03:17:00.506Z,98924.59
2022-08-18T03:18:02.900Z,98919.13
2022-08-18T03:19:05.243Z,98922.97
2022-08-18T03:20:07.737Z,98922.97
2022-08-18T03:21:14.876Z,98920.19
2022-08-18T03:22:27.685Z,98927.06
2022-08-18T03:23:31.761Z,98925.75
2022-08-18T03:24:34.527Z,98918.88
2022-08-18T03:25:37.224Z,98927.13
2022-08-18T03:26:42.416Z,98924.78
2022-08-18T03:27:44.750Z,98928.09
2022-08-18T03:28:49.265Z,98924.47
2022-08-18T03:29:51.684Z,98927.03
2022-08-18T03:30:54.091Z,98930.56
2022-08-18T03:31:56.403Z,98932.50
2022-08-18T03:32:58.717Z,98926.78
2022-08-18T03:34:01.568Z,98934.13
2022-08-18T03:35:04.495Z,98938.75
2022-08-18T03:36:14.173Z,98929.63
2022-08-18T03:37:16.494Z,98931.19
2022-08-18T03:38:18.711Z,98925.53
2022-08-18T03:39:23.594Z,98934.41
2022-08-18T03:40:26.097Z,98931.72
2022-08-18T03:41:44.409Z,98936.47
2022-08-18T03:42:51.163Z,98928.38
2022-08-18T03:43:53.417Z,98926.72
2022-08-18T03:44:55.763Z,98934.53
2022-08-18T03:46:09.648Z,98916.53
2022-08-18T03:47:11.946Z,98926.78
2022-08-18T03:48:14.402Z,98922.19
2022-08-18T03:49:18.158Z,98927.88
2022-08-18T03:50:21.538Z,98935.28
2022-08-18T03:51:29.136Z,98937.91
2022-08-18T03:52:31.435Z,98926.06
2022-08-18T03:53:37.886Z,98927.38
2022-08-18T03:54:40.825Z,98931.50
2022-08-18T03:55:43.561Z,98929.84
2022-08-18T03:56:47.156Z,98925.34
2022-08-18T03:57:52.785Z,98928.38
2022-08-18T03:58:58.755Z,98930.75
2022-08-18T04:00:01.497Z,98928.81
2022-08-18T04:01:07.973Z,98921.44
2022-08-18T04:02:11.596Z,98924.41
2022-08-18T04:03:13.905Z,98910.88
2022-08-18T04:04:19.635Z,98912.63
2022-08-18T04:05:22.200Z,98910.03
2022-08-18T04:06:30.285Z,98909.78
2022-08-18T04:07:32.881Z,98906.72
2022-08-18T04:08:35.159Z,98907.81
2022-08-18T04:09:38.848Z,98912.66
2022-08-18T04:10:44.165Z,98920.22
2022-08-18T04:11:46.926Z,98915.88
2022-08-18T04:12:51.734Z,98910.09
2022-08-18T04:13:57.788Z,98915.88
2022-08-18T04:15:00.005Z,98915.31
2022-08-18T04:16:02.296Z,98916.88
2022-08-18T04:17:05.382Z,98913.47
2022-08-18T04:18:08.926Z,98915.75
2022-08-18T04:19:13.608Z,98919.28
2022-08-18T04:20:16.415Z,98923.56
2022-08-18T04:21:19.124Z,98928.34
2022-08-18T04:22:22.598Z,98914.09
2022-08-18T04:23:25.025Z,98916.19
2022-08-18T04:24:31.871Z,98919.19
2022-08-18T04:25:35.518Z,98916.97
2022-08-18T04:26:45.247Z,98924.88
2022-08-18T04:27:47.597Z,98913.31
2022-08-18T04:28:49.971Z,98922.16
2022-08-18T04:29:52.267Z,98920.78
2022-08-18T04:30:59.520Z,98921.50
2022-08-18T04:32:05.997Z,98924.16
2022-08-18T04:33:08.437Z,98928.97
2022-08-18T04:34:12.120Z,98920.31
2022-08-18T04:35:14.559Z,98930.31
2022-08-18T04:36:20.519Z,98927.25
2022-08-18T04:37:23.203Z,98929.06
2022-08-18T04:38:25.550Z,98917.81
2022-08-18T04:39:28.460Z,98926.03
2022-08-18T04:40:33.594Z,98923.75
2022-08-18T04:41:38.069Z,98925.88
2022-08-18T04:42:43.530Z,98925.75
2022-08-18T04:43:48.031Z,98924.34
2022-08-18T04:44:51.660Z,98929.44
2022-08-18T04:45:54.056Z,98936.41
2022-08-18T04:46:56.470Z,98928.06
2022-08-18T04:47:58.739Z,98936.28
2022-08-18T04:49:01.047Z,98943.44
2022-08-18T04:50:03.980Z,98944.59
2022-08-18T04:51:09.364Z,98950.94
2022-08-18T04:52:40.525Z,98945.28
2022-08-18T04:53:44.943Z,98940.28
2022-08-18T04:54:47.225Z,98958.72
2022-08-18T04:55:54.278Z,98964.19
2022-08-18T04:56:56.580Z,98955.34
2022-08-18T04:57:59.486Z,98964.19
2022-08-18T04:59:03.236Z,98960.41
2022-08-18T05:00:07.304Z,98951.34
2022-08-18T05:01:10.038Z,98952.56
2022-08-18T05:02:14.857Z,98961.00
2022-08-18T05:03:17.544Z,98965.69
2022-08-18T05:04:19.894Z,98972.78
2022-08-18T05:05:23.516Z,98969.44
2022-08-18T05:06:28.093Z,98981.88
2022-08-18T05:07:30.513Z,98985.31
2022-08-18T05:08:32.917Z,98991.38
2022-08-18T05:09:41.302Z,98996.81
2022-08-18T05:10:43.846Z,98994.28
2022-08-18T05:11:46.163Z,98999.09
2022-08-18T05:12:48.717Z,98991.63
2022-08-18T05:13:54.573Z,99004.16
2022-08-18T05:14:57.265Z,98989.69
2022-08-18T05:16:16.855Z,99002.28
2022-08-18T05:17:20.622Z,99001.56
2022-08-18T05:18:24.588Z,98995.72
2022-08-18T05:19:30.827Z,99003.13
2022-08-18T05:20:34.886Z,99004.81
2022-08-18T05:21:41.959Z,98989.47
2022-08-18T05:22:45.500Z,98995.84
2022-08-18T05:23:49.660Z,98988.84
2022-08-18T05:24:52.558Z,98990.53
2022-08-18T05:26:00.441Z,98986.41
2022-08-18T05:27:03.666Z,98981.44
2022-08-18T05:28:06.060Z,98983.03
2022-08-18T05:29:18.478Z,98987.88
2022-08-18T05:30:22.068Z,98978.41
2022-08-18T05:31:26.682Z,98982.41
2022-08-18T05:32:47.385Z,98975.63
2022-08-18T05:33:52.137Z,98973.59
2022-08-18T05:34:54.616Z,98973.97
2022-08-18T05:36:05.411Z,98971.06
2022-08-18T05:37:22.637Z,98963.78
2022-08-18T05:38:53.539Z,98958.00
2022-08-18T05:40:04.332Z,98957.38
2022-08-18T05:41:24.433Z,98954.13
2022-08-18T05:42:29.062Z,98952.16
2022-08-18T05:43:31.888Z,98955.94
2022-08-18T05:44:47.135Z,98953.50
2022-08-18T05:45:51.711Z,98948.94
2022-08-18T05:46:57.020Z,98950.25
2022-08-18T05:48:00.014Z,98957.00
2022-08-18T05:49:02.583Z,98943.81
2022-08-18T05:50:19.356Z,98948.91
2022-08-18T05:51:34.545Z,98949.31
2022-08-18T05:52:56.516Z,98946.53
2022-08-18T05:54:18.131Z,98950.56
2022-08-18T05:55:47.796Z,98952.94
2022-08-18T05:56:52.960Z,98940.47
2022-08-18T05:58:01.870Z,98947.78
2022-08-18T05:59:05.057Z,98947.28
2022-08-18T06:00:10.791Z,98943.13
2022-08-18T06:01:21.574Z,98952.31
2022-08-18T06:02:38.585Z,98947.19
2022-08-18T06:03:49.821Z,98953.41
2022-08-18T06:04:57.040Z,98948.28
2022-08-18T06:06:02.216Z,98943.16
2022-08-18T06:07:09.514Z,98942.72
2022-08-18T06:08:14.372Z,98934.56
2022-08-18T06:09:43.521Z,98945.97
2022-08-18T06:10:48.676Z,98940.59
2022-08-18T06:11:51.334Z,98950.72
2022-08-18T06:12:57.477Z,98950.84
2022-08-18T06:14:00.372Z,98948.56
2022-08-18T06:15:27.565Z,98937.78
2022-08-18T06:16:54.047Z,98940.41
2022-08-18T06:18:20.150Z,98948.19
2022-08-18T06:19:36.901Z,98947.13
2022-08-18T06:20:59.693Z,98949.41
2022-08-18T06:22:14.775Z,98957.34
2022-08-18T06:23:19.845Z,98962.09
2022-08-18T06:24:36.132Z,98958.63
2022-08-18T06:26:16.903Z,98958.94
2022-08-18T06:27:31.315Z,98962.66
2022-08-18T06:29:06.214Z,98964.84
2022-08-18T06:30:27.374Z,98973.25
2022-08-18T06:31:45.028Z,98972.16
2022-08-18T06:33:12.549Z,98973.38
2022-08-18T06:34:40.655Z,98972.69
2022-08-18T06:35:50.177Z,98980.75
2022-08-18T06:37:04.460Z,98982.47
2022-08-18T06:38:32.700Z,98980.00
2022-08-18T06:39:43.407Z,98974.91
2022-08-18T06:40:48.116Z,98975.13
2022-08-18T06:41:53.559Z,98984.41
2022-08-18T06:42:55.857Z,98978.16
2022-08-18T06:44:04.813Z,98982.97
2022-08-18T06:45:12.812Z,98974.50
2022-08-18T06:46:21.890Z,98983.34
2022-08-18T06:47:44.537Z,98985.41
2022-08-18T06:48:54.308Z,98983.25
2022-08-18T06:50:20.559Z,98986.22
2022-08-18T06:51:27.556Z,99001.16
2022-08-18T06:52:33.858Z,98999.28
2022-08-18T06:53:54.689Z,99003.56
2022-08-18T06:54:59.737Z,99003.88
2022-08-18T06:56:25.741Z,98984.97
2022-08-18T06:57:52.847Z,98979.50
2022-08-18T06:59:13.332Z,98978.88
2022-08-18T07:00:18.139Z,98981.16
2022-08-18T07:01:24.396Z,98976.34
2022-08-18T07:02:55.430Z,98980.59
2022-08-18T07:03:58.228Z,98969.47
2022-08-18T07:05:22.100Z,98978.78
2022-08-18T07:06:30.361Z,98971.66
2022-08-18T07:07:41.167Z,98979.41
2022-08-18T07:08:45.076Z,98981.22
2022-08-18T07:09:49.337Z,98974.06
2022-08-18T07:10:52.834Z,98970.00
2022-08-18T07:12:02.515Z,98971.94
2022-08-18T07:13:08.604Z,98971.72
2022-08-18T07:14:21.089Z,98968.19
2022-08-18T07:15:24.276Z,98979.41
2022-08-18T07:16:54.508Z,98961.78
2022-08-18T07:18:05.031Z,98972.22
2022-08-18T07:19:13.083Z,98970.28
2022-08-18T07:20:21.717Z,98973.78
2022-08-18T07:21:30.054Z,98965.75
2022-08-18T07:22:39.214Z,98974.88
2022-08-18T07:23:42.119Z,98982.50
2022-08-18T07:24:47.563Z,98975.78
2022-08-18T07:25:58.155Z,98990.38
2022-08-18T07:27:04.793Z,98996.72
2022-08-18T07:28:07.216Z,99000.25
2022-08-18T07:29:14.690Z,99011.06
2022-08-18T07:30:20.081Z,99008.81
2022-08-18T07:31:27.895Z,99014.31
2022-08-18T07:32:39.543Z,99010.22
2022-08-18T07:33:46.496Z,99010.50
2022-08-18T07:34:55.010Z,99012.91
2022-08-18T07:36:06.951Z,99020.44
2022-08-18T07:37:30.047Z,99020.00
2022-08-18T07:38:43.073Z,99010.78
2022-08-18T07:40:23.745Z,99015.44
2022-08-18T07:41:35.630Z,99010.47
2022-08-18T07:43:01.291Z,99019.66
2022-08-18T07:44:25.528Z,99013.59
2022-08-18T07:45:47.426Z,99008.97
2022-08-18T07:47:01.938Z,99004.59
2022-08-18T07:48:37.206Z,98996.03
2022-08-18T07:49:40.750Z,98994.91
2022-08-18T07:51:00.170Z,98994.50
2022-08-18T07:52:35.824Z,98999.66
2022-08-18T07:53:55.649Z,99011.59
2022-08-18T07:55:13.736Z,99014.66
2022-08-18T07:56:33.077Z,99019.47
2022-08-18T07:58:06.027Z,99011.69
2022-08-18T07:59:26.646Z,99014.44
2022-08-18T08:00:59.923Z,99021.28
2022-08-18T08:02:13.565Z,99012.44
2022-08-18T08:03:34.391Z,99016.34
2022-08-18T08:05:02.056Z,99019.13
2022-08-18T08:06:14.988Z,99023.34
2022-08-18T08:07:25.108Z,99021.00
2022-08-18T08:08:54.894Z,99019.19
2022-08-18T08:09:59.946Z,99018.34
2022-08-18T08:11:19.147Z,99020.19
2022-08-18T08:12:41.292Z,99015.47
2022-08-18T08:14:22.904Z,99018.72
2022-08-18T08:15:45.524Z,99022.97
2022-08-18T08:17:04.528Z,99024.59
2022-08-18T08:18:37.927Z,99023.53
2022-08-18T08:20:01.017Z,99027.38
2022-08-18T08:21:11.012Z,99025.91
2022-08-18T08:22:22.890Z,99034.47
2022-08-18T08:23:36.974Z,99025.63
2022-08-18T08:24:52.177Z,99037.59
2022-08-18T08:26:16.050Z,99046.44
2022-08-18T08:27:34.327Z,99043.84
2022-08-18T08:28:56.002Z,99046.63
2022-08-18T08:30:08.457Z,99046.97
2022-08-18T08:31:36.595Z,99048.38
2022-08-18T08:32:49.160Z,99044.47
2022-08-18T08:34:39.299Z,99039.78
2022-08-18T08:35:50.373Z,99035.81
2022-08-18T08:37:00.994Z,99044.13
2022-08-18T08:38:45.921Z,99038.09
2022-08-18T08:40:24.279Z,99032.41
2022-08-18T08:41:41.428Z,99041.44
2022-08-18T08:43:02.643Z,99032.34
2022-08-18T08:44:14.944Z,99033.09
2022-08-18T08:45:36.912Z,99032.41
2022-08-18T08:46:51.880Z,99014.97
2022-08-18T08:48:08.397Z,99016.16
2022-08-18T08:49:39.601Z,99017.78
2022-08-18T08:50:49.824Z,99005.66
2022-08-18T08:52:04.974Z,99006.38
2022-08-18T08:53:19.673Z,99002.19
2022-08-18T08:54:27.465Z,98993.63
2022-08-18T08:55:32.698Z,99014.13
2022-08-18T08:56:44.268Z,99016.34
2022-08-18T08:57:56.037Z,99020.44
2022-08-18T08:59:10.204Z,99017.28
2022-08-18T09:00:15.010Z,99024.69
2022-08-18T09:01:35.182Z,99022.94
2022-08-18T09:02:50.411Z,99027.28
2022-08-18T09:04:01.448Z,99029.84
2022-08-18T09:05:14.575Z,99031.94
2022-08-18T09:06:47.759Z,99034.28
2022-08-18T09:08:13.498Z,99041.47
2022-08-18T09:09:57.105Z,99036.81
2022-08-18T09:11:18.971Z,99038.75
2022-08-18T09:12:25.380Z,99036.44
2022-08-18T09:13:54.126Z,99032.91
2022-08-18T09:15:03.755Z,99030.00
2022-08-18T09:16:45.065Z,99020.16
2022-08-18T09:17:58.891Z,99009.94
2022-08-18T09:19:40.994Z,99000.50
2022-08-18T09:21:09.083Z,98972.50
2022-08-18T09:22:29.823Z,98963.53
2022-08-18T09:23:42.423Z,98956.38
2022-08-18T09:24:51.355Z,98941.34
2022-08-18T09:25:58.512Z,98952.59
2022-08-18T09:27:03.694Z,98945.41
2022-08-18T09:28:12.777Z,98943.53
2022-08-18T09:29:23.299Z,98937.94
2022-08-18T09:30:49.288Z,98926.06
2022-08-18T09:32:18.303Z,98934.94
2022-08-18T09:33:40.415Z,98933.88
2022-08-18T09:34:48.559Z,98942.78
2022-08-18T09:36:15.301Z,98934.69
2022-08-18T09:37:27.822Z,98947.47
2022-08-18T09:38:50.584Z,98952.16
2022-08-18T09:40:13.102Z,98959.81
2022-08-18T09:41:32.216Z,98955.91
2022-08-18T09:42:56.980Z,98956.56
2022-08-18T09:44:18.273Z,98945.47
2022-08-18T09:45:34.309Z,98950.84
2022-08-18T09:46:57.561Z,98951.50
2022-08-18T09:48:01.345Z,98964.81
2022-08-18T09:49:23.799Z,98952.66
2022-08-18T09:50:28.778Z,98979.13
2022-08-18T09:51:40.111Z,98973.31
2022-08-18T09:52:43.463Z,98975.34
2022-08-18T09:53:46.807Z,98984.75
2022-08-18T09:55:05.978Z,98980.28
2022-08-18T09:56:09.066Z,98985.22
2022-08-18T09:57:19.661Z,98985.63
2022-08-18T09:58:26.310Z,98987.50
2022-08-18T09:59:34.901Z,98991.09
2022-08-18T10:00:38.193Z,98993.72
2022-08-18T10:01:42.031Z,98994.19
2022-08-18T10:02:48.805Z,98995.88
2022-08-18T10:04:29.201Z,98991.19
2022-08-18T10:05:32.023Z,98985.78
2022-08-18T10:06:37.611Z,98990.88
2022-08-18T10:07:55.933Z,98994.09
2022-08-18T10:09:36.290Z,99003.78
2022-08-18T10:11:09.266Z,99010.66
2022-08-18T10:12:15.881Z,99004.69
2022-08-18T10:13:52.290Z,99016.41
2022-08-18T10:15:33.265Z,99015.56
2022-08-18T10:18:37.512Z,99004.94
2022-08-18T10:19:55.069Z,99009.78
2022-08-18T10:21:18.771Z,99001.81
2022-08-18T10:22:46.687Z,98984.47
2022-08-18T10:24:14.801Z,98983.91
2022-08-18T10:25:47.497Z,98983.19
2022-08-18T10:26:54.111Z,98972.44
2022-08-18T10:27:57.825Z,98970.31
2022-08-18T10:29:11.275Z,98963.00
2022-08-18T10:30:30.531Z,98959.44
2022-08-18T10:31:54.866Z,98956.53
2022-08-18T10:32:58.387Z,98954.66
2022-08-18T10:34:19.391Z,98954.41
2022-08-18T10:35:33.620Z,98949.66
2022-08-18T10:36:41.963Z,98922.22
2022-08-18T10:37:49.165Z,98940.91
2022-08-18T10:38:53.466Z,98932.59
2022-08-18T10:40:09.983Z,98938.09
2022-08-18T10:41:30.977Z,98935.56
2022-08-18T10:42:38.066Z,98923.91
2022-08-18T10:43:45.908Z,98915.16
2022-08-18T10:45:12.162Z,98912.88
2022-08-18T10:46:29.459Z,98916.06
2022-08-18T10:47:35.012Z,98910.69
2022-08-18T10:48:40.251Z,98907.47
2022-08-18T10:49:49.269Z,98908.28
2022-08-18T10:51:21.535Z,98898.91
2022-08-18T10:54:26.381Z,98903.41
2022-08-18T10:55:51.475Z,98915.22
2022-08-18T10:57:04.142Z,98909.97
2022-08-18T10:58:34.656Z,98902.19
2022-08-18T11:00:01.095Z,98902.59
2022-08-18T11:01:40.123Z,98908.00
2022-08-18T11:04:42.460Z,98903.94
2022-08-18T11:05:45.065Z,98893.84
2022-08-18T11:06:50.392Z,98896.03
2022-08-18T11:08:01.157Z,98893.66
2022-08-18T11:09:04.027Z,98883.94
2022-08-18T11:10:57.579Z,98886.63
2022-08-18T11:12:03.760Z,98880.06
2022-08-18T11:13:10.149Z,98887.28
2022-08-18T11:14:40.708Z,98885.78
2022-08-18T11:15:48.801Z,98877.53
2022-08-18T11:17:22.310Z,98878.84
2022-08-18T11:18:43.155Z,98885.28
2022-08-18T11:19:46.821Z,98895.72
2022-08-18T11:20:53.784Z,98900.25
2022-08-18T11:21:56.267Z,98903.97
2022-08-18T11:23:02.339Z,98908.97
2022-08-18T11:24:11.140Z,98914.50
2022-08-18T11:25:22.294Z,98909.44
2022-08-18T11:26:29.486Z,98917.84
2022-08-18T11:27:37.948Z,98910.19
2022-08-18T11:28:44.923Z,98912.81
2022-08-18T11:29:49.229Z,98902.22
2022-08-18T11:30:54.260Z,98901.72
2022-08-18T11:32:23.045Z,98902.06
2022-08-18T11:33:25.655Z,98908.94
2022-08-18T11:34:45.476Z,98909.63
2022-08-18T11:35:59.235Z,98907.78
2022-08-18T11:37:09.889Z,98911.13
2022-08-18T11:39:47.586Z,98900.34
2022-08-18T11:41:11.769Z,98900.97
2022-08-18T11:42:21.868Z,98899.84
2022-08-18T11:43:40.980Z,98895.72
2022-08-18T11:45:17.561Z,98900.13
2022-08-18T11:46:38.593Z,98900.59
2022-08-18T11:48:21.052Z,98906.81
2022-08-18T11:49:33.687Z,98899.50
2022-08-18T11:50:54.504Z,98896.22
2022-08-18T11:52:19.581Z,98900.56
2022-08-18T11:53:34.579Z,98898.53
2022-08-18T11:54:50.680Z,98889.81
2022-08-18T11:56:31.570Z,98878.03
2022-08-18T11:57:46.247Z,98871.84
2022-08-18T11:59:21.350Z,98873.03
2022-08-18T12:00:53.799Z,98864.16
2022-08-18T12:01:56.419Z,98870.41
2022-08-18T12:03:04.808Z,98871.78
2022-08-18T12:04:16.564Z,98862.19
2022-08-18T12:05:19.725Z,98871.03
2022-08-18T12:06:27.922Z,98873.75
2022-08-18T12:07:35.794Z,98867.97
2022-08-18T12:09:11.281Z,98871.25
2022-08-18T12:10:28.322Z,98871.31
2022-08-18T12:11:32.596Z,98871.19
2022-08-18T12:12:45.878Z,98872.97
2022-08-18T12:13:58.860Z,98864.13
2022-08-18T12:15:17.539Z,98857.50
2022-08-18T12:16:46.529Z,98841.34
2022-08-18T12:17:52.148Z,98838.84
2022-08-18T12:18:55.529Z,98842.31
2022-08-18T12:19:59.752Z,98841.56
2022-08-18T12:22:31.000Z,98831.56
2022-08-18T12:23:38.667Z,98826.44
2022-08-18T12:24:48.514Z,98831.97
2022-08-18T12:25:51.735Z,98819.91
2022-08-18T12:26:54.897Z,98826.06
2022-08-18T12:27:58.382Z,98821.59
2022-08-18T12:29:01.145Z,98826.25
2022-08-18T12:30:05.509Z,98825.97
2022-08-18T12:32:49.665Z,98827.47
2022-08-18T12:34:00.999Z,98820.84
2022-08-18T12:35:09.771Z,98832.03
2022-08-18T12:36:13.522Z,98822.50
2022-08-18T12:38:45.651Z,98832.47
2022-08-18T12:39:55.812Z,98823.84
2022-08-18T12:41:00.134Z,98831.91
2022-08-18T12:42:02.660Z,98826.16
2022-08-18T12:43:06.342Z,98819.66
2022-08-18T12:44:13.448Z,98815.53
2022-08-18T12:45:15.967Z,98816.94
2022-08-18T12:46:18.345Z,98817.56
2022-08-18T12:47:23.970Z,98819.44
2022-08-18T12:48:30.273Z,98807.97
2022-08-18T12:49:32.595Z,98807.38
2022-08-18T12:50:50.252Z,98810.25
2022-08-18T12:51:57.783Z,98796.25
2022-08-18T12:53:00.801Z,98804.38
2022-08-18T12:54:03.309Z,98807.59
2022-08-18T12:55:08.686Z,98800.63
2022-08-18T12:56:29.992Z,98809.13
2022-08-18T12:57:52.164Z,98818.91
2022-08-18T12:58:55.327Z,98809.84
2022-08-18T12:59:57.654Z,98803.78
2022-08-18T13:01:00.442Z,98812.72
2022-08-18T13:02:06.877Z,98811.50
2022-08-18T13:03:11.581Z,98804.63
2022-08-18T13:04:15.645Z,98814.69
2022-08-18T13:05:26.415Z,98796.81
2022-08-18T13:06:33.785Z,98793.56
2022-08-18T13:07:37.035Z,98796.44
2022-08-18T13:08:49.892Z,98777.81
2022-08-18T13:09:54.391Z,98784.66
2022-08-18T13:11:00.426Z,98784.56
2022-08-18T13:12:18.405Z,98777.00
2022-08-18T13:13:21.969Z,98776.63
2022-08-18T13:14:28.522Z,98775.16
2022-08-18T13:15:31.018Z,98768.97
2022-08-18T13:16:54.117Z,98781.84
2022-08-18T13:17:57.587Z,98785.06
2022-08-18T13:19:00.089Z,98772.72
2022-08-18T13:20:10.540Z,98771.28
2022-08-18T13:21:18.472Z,98767.84
2022-08-18T13:22:20.859Z,98766.69
2022-08-18T13:23:25.164Z,98764.63
2022-08-18T13:24:27.879Z,98763.38
2022-08-18T13:25:38.345Z,98766.38
2022-08-18T13:26:45.929Z,98755.81
2022-08-18T13:27:52.185Z,98755.56
2022-08-18T13:28:57.984Z,98745.97
2022-08-18T13:30:00.814Z,98754.91
2022-08-18T13:31:05.435Z,98756.44
2022-08-18T13:32:09.375Z,98749.31
2022-08-18T13:33:33.977Z,98735.41
2022-08-18T13:34:34.454Z,98731.03
2022-08-18T13:35:44.647Z,98732.41
2022-08-18T13:36:48.229Z,98727.00
2022-08-18T13:37:50.727Z,98714.50
2022-08-18T13:38:54.598Z,98728.38
2022-08-18T13:39:58.147Z,98731.50
2022-08-18T13:41:04.908Z,98727.94
2022-08-18T13:42:26.482Z,98724.72
2022-08-18T13:43:44.683Z,98718.56
2022-08-18T13:44:53.213Z,98721.44
2022-08-18T13:45:56.561Z,98716.44
2022-08-18T13:46:58.881Z,98715.59
2022-08-18T13:48:01.270Z,98709.63
2022-08-18T13:49:04.435Z,98715.50
2022-08-18T13:50:10.061Z,98720.72
2022-08-18T13:51:23.576Z,98718.72
2022-08-18T13:52:34.442Z,98711.00
2022-08-18T13:53:50.631Z,98721.91
2022-08-18T13:55:00.408Z,98717.81
2022-08-18T13:56:03.524Z,98709.84
2022-08-18T13:57:06.958Z,98709.91
2022-08-18T13:58:20.322Z,98717.97
2022-08-18T13:59:23.688Z,98715.59